Terminal Aerodrome Forecast
Issued by NWS

Home | Current Version | Previous Version | Text Only | Print | Product List | Glossary On
Versions: 1 2 3 4 5 6 7 8 9 10 11 12 13 14 15 16 17
000
FTUS43 KDLH 250520
TAFBRD
TAF
KBRD 250520Z 2506/2606 31012G22KT P6SM BKN029
     FM250900 32010KT P6SM SCT030
     FM251200 32006KT P6SM SKC
     FM252300 VRB03KT P6SM FEW250=

USA.gov is the U.S. government's official web portal to all federal, state and local government web resources and services.